sensor_id;sensor_type;location;lat;lon;timestamp;temperature;humidity
2100;DHT22;1055;48.854;9.302;2022-07-18T00:02:16;20.20;70.50
2100;DHT22;1055;48.854;9.302;2022-07-18T00:04:43;20.10;71.60
2100;DHT22;1055;48.854;9.302;2022-07-18T00:07:09;20.20;71.10
2100;DHT22;1055;48.854;9.302;2022-07-18T00:09:39;20.10;72.40
2100;DHT22;1055;48.854;9.302;2022-07-18T00:12:07;20.20;71.90
2100;DHT22;1055;48.854;9.302;2022-07-18T00:14:34;20.10;71.40
2100;DHT22;1055;48.854;9.302;2022-07-18T00:17:00;20.10;71.50
2100;DHT22;1055;48.854;9.302;2022-07-18T00:19:26;19.90;71.40
2100;DHT22;1055;48.854;9.302;2022-07-18T00:21:52;19.80;71.90
2100;DHT22;1055;48.854;9.302;2022-07-18T00:24:18;19.30;73.50
2100;DHT22;1055;48.854;9.302;2022-07-18T00:26:43;19.10;74.90
2100;DHT22;1055;48.854;9.302;2022-07-18T00:29:09;19.40;74.40
2100;DHT22;1055;48.854;9.302;2022-07-18T00:31:35;19.50;74.90
2100;DHT22;1055;48.854;9.302;2022-07-18T00:34:01;19.70;74.40
2100;DHT22;1055;48.854;9.302;2022-07-18T00:36:27;19.70;73.50
2100;DHT22;1055;48.854;9.302;2022-07-18T00:38:54;19.80;74.00
2100;DHT22;1055;48.854;9.302;2022-07-18T00:41:19;19.70;74.80
2100;DHT22;1055;48.854;9.302;2022-07-18T00:43:45;19.80;74.10
2100;DHT22;1055;48.854;9.302;2022-07-18T00:46:11;19.70;75.00
2100;DHT22;1055;48.854;9.302;2022-07-18T00:48:41;19.70;75.60
2100;DHT22;1055;48.854;9.302;2022-07-18T00:51:08;19.60;76.50
2100;DHT22;1055;48.854;9.302;2022-07-18T00:53:34;19.50;77.50
2100;DHT22;1055;48.854;9.302;2022-07-18T00:56:01;19.20;79.00
2100;DHT22;1055;48.854;9.302;2022-07-18T00:58:28;19.30;79.10
2100;DHT22;1055;48.854;9.302;2022-07-18T01:00:55;19.20;79.90
2100;DHT22;1055;48.854;9.302;2022-07-18T01:03:39;18.60;80.80
2100;DHT22;1055;48.854;9.302;2022-07-18T01:06:04;18.60;83.90
2100;DHT22;1055;48.854;9.302;2022-07-18T01:08:30;18.80;83.40
2100;DHT22;1055;48.854;9.302;2022-07-18T01:10:56;18.80;83.50
2100;DHT22;1055;48.854;9.302;2022-07-18T01:13:21;18.90;83.50
2100;DHT22;1055;48.854;9.302;2022-07-18T01:15:47;18.80;84.90
2100;DHT22;1055;48.854;9.302;2022-07-18T01:18:13;18.90;85.00
2100;DHT22;1055;48.854;9.302;2022-07-18T01:20:39;19.00;84.80
2100;DHT22;1055;48.854;9.302;2022-07-18T01:23:04;19.00;85.90
2100;DHT22;1055;48.854;9.302;2022-07-18T01:25:30;18.80;87.50
2100;DHT22;1055;48.854;9.302;2022-07-18T01:27:56;18.60;89.60
2100;DHT22;1055;48.854;9.302;2022-07-18T01:30:23;18.60;90.80
2100;DHT22;1055;48.854;9.302;2022-07-18T01:32:57;18.40;92.50
2100;DHT22;1055;48.854;9.302;2022-07-18T01:35:24;18.20;94.70
2100;DHT22;1055;48.854;9.302;2022-07-18T01:37:54;17.90;97.30
2100;DHT22;1055;48.854;9.302;2022-07-18T01:40:20;17.80;99.00
2100;DHT22;1055;48.854;9.302;2022-07-18T01:42:46;17.40;99.90
2100;DHT22;1055;48.854;9.302;2022-07-18T01:45:12;17.30;99.90
2100;DHT22;1055;48.854;9.302;2022-07-18T01:47:38;17.10;99.90
2100;DHT22;1055;48.854;9.302;2022-07-18T01:50:04;17.30;99.90
2100;DHT22;1055;48.854;9.302;2022-07-18T01:52:30;17.20;99.90
2100;DHT22;1055;48.854;9.302;2022-07-18T01:54:56;17.40;99.90
2100;DHT22;1055;48.854;9.302;2022-07-18T01:57:22;17.20;99.90
2100;DHT22;1055;48.854;9.302;2022-07-18T01:59:49;16.70;99.90
2100;DHT22;1055;48.854;9.302;2022-07-18T02:02:15;16.60;99.90
2100;DHT22;1055;48.854;9.302;2022-07-18T02:04:40;16.60;99.90
2100;DHT22;1055;48.854;9.302;2022-07-18T02:09:57;17.00;99.90
2100;DHT22;1055;48.854;9.302;2022-07-18T02:12:23;17.20;99.90
2100;DHT22;1055;48.854;9.302;2022-07-18T02:14:49;17.30;99.90
2100;DHT22;1055;48.854;9.302;2022-07-18T02:17:15;17.20;99.90
2100;DHT22;1055;48.854;9.302;2022-07-18T02:19:41;17.30;99.90
2100;DHT22;1055;48.854;9.302;2022-07-18T02:22:06;17.40;99.90
2100;DHT22;1055;48.854;9.302;2022-07-18T02:24:32;17.40;99.90
2100;DHT22;1055;48.854;9.302;2022-07-18T02:26:58;17.40;99.90
2100;DHT22;1055;48.854;9.302;2022-07-18T02:29:24;17.40;99.90
2100;DHT22;1055;48.854;9.302;2022-07-18T02:31:49;17.40;99.90
2100;DHT22;1055;48.854;9.302;2022-07-18T02:34:15;17.30;99.90
2100;DHT22;1055;48.854;9.302;2022-07-18T02:36:41;17.20;99.90
2100;DHT22;1055;48.854;9.302;2022-07-18T02:39:08;17.20;99.90
2100;DHT22;1055;48.854;9.302;2022-07-18T02:41:34;17.20;99.90
2100;DHT22;1055;48.854;9.302;2022-07-18T02:44:00;17.20;99.90
2100;DHT22;1055;48.854;9.302;2022-07-18T02:46:27;17.00;99.90
2100;DHT22;1055;48.854;9.302;2022-07-18T02:48:53;17.00;99.90
2100;DHT22;1055;48.854;9.302;2022-07-18T02:51:19;16.90;99.90
2100;DHT22;1055;48.854;9.302;2022-07-18T02:53:45;17.00;99.90
2100;DHT22;1055;48.854;9.302;2022-07-18T02:56:10;16.60;99.90
2100;DHT22;1055;48.854;9.302;2022-07-18T02:58:36;16.60;99.90
2100;DHT22;1055;48.854;9.302;2022-07-18T03:01:02;16.40;99.90
2100;DHT22;1055;48.854;9.302;2022-07-18T03:03:28;16.20;99.90
2100;DHT22;1055;48.854;9.302;2022-07-18T03:05:53;16.30;99.90
2100;DHT22;1055;48.854;9.302;2022-07-18T03:08:19;16.30;99.90
2100;DHT22;1055;48.854;9.302;2022-07-18T03:10:44;16.30;99.90
2100;DHT22;1055;48.854;9.302;2022-07-18T03:13:10;16.20;99.90
2100;DHT22;1055;48.854;9.302;2022-07-18T03:15:36;16.00;99.90
2100;DHT22;1055;48.854;9.302;2022-07-18T03:18:02;15.90;99.90
2100;DHT22;1055;48.854;9.302;2022-07-18T03:20:28;16.20;99.90
2100;DHT22;1055;48.854;9.302;2022-07-18T03:22:54;16.40;99.90
2100;DHT22;1055;48.854;9.302;2022-07-18T03:25:20;16.60;99.90
2100;DHT22;1055;48.854;9.302;2022-07-18T03:27:45;16.60;99.90
2100;DHT22;1055;48.854;9.302;2022-07-18T03:30:11;16.70;99.90
2100;DHT22;1055;48.854;9.302;2022-07-18T03:32:37;16.80;99.90
2100;DHT22;1055;48.854;9.302;2022-07-18T03:35:03;16.80;99.90
2100;DHT22;1055;48.854;9.302;2022-07-18T03:37:29;16.70;99.90
2100;DHT22;1055;48.854;9.302;2022-07-18T03:39:55;16.70;99.90
2100;DHT22;1055;48.854;9.302;2022-07-18T03:42:20;16.80;99.90
2100;DHT22;1055;48.854;9.302;2022-07-18T03:44:46;16.70;99.90
2100;DHT22;1055;48.854;9.302;2022-07-18T03:47:11;16.80;99.90
2100;DHT22;1055;48.854;9.302;2022-07-18T03:49:37;16.80;99.90
2100;DHT22;1055;48.854;9.302;2022-07-18T03:52:03;16.50;99.90
2100;DHT22;1055;48.854;9.302;2022-07-18T03:54:29;16.40;99.90
2100;DHT22;1055;48.854;9.302;2022-07-18T03:56:54;16.50;99.90
2100;DHT22;1055;48.854;9.302;2022-07-18T03:59:20;16.20;99.90
2100;DHT22;1055;48.854;9.302;2022-07-18T04:01:46;16.30;99.90
2100;DHT22;1055;48.854;9.302;2022-07-18T04:04:11;16.40;99.90
2100;DHT22;1055;48.854;9.302;2022-07-18T04:06:37;16.00;99.90
2100;DHT22;1055;48.854;9.302;2022-07-18T04:09:03;15.90;99.90
2100;DHT22;1055;48.854;9.302;2022-07-18T04:11:29;15.60;99.90
2100;DHT22;1055;48.854;9.302;2022-07-18T04:13:55;15.50;99.90
2100;DHT22;1055;48.854;9.302;2022-07-18T04:16:21;15.20;99.90
2100;DHT22;1055;48.854;9.302;2022-07-18T04:18:47;14.90;99.90
2100;DHT22;1055;48.854;9.302;2022-07-18T04:21:13;14.80;99.90
2100;DHT22;1055;48.854;9.302;2022-07-18T04:23:40;14.70;99.90
2100;DHT22;1055;48.854;9.302;2022-07-18T04:26:06;14.70;99.90
2100;DHT22;1055;48.854;9.302;2022-07-18T04:28:32;14.70;99.90
2100;DHT22;1055;48.854;9.302;2022-07-18T04:30:58;14.60;99.90
2100;DHT22;1055;48.854;9.302;2022-07-18T04:33:24;14.50;99.90
2100;DHT22;1055;48.854;9.302;2022-07-18T04:35:50;14.50;99.90
2100;DHT22;1055;48.854;9.302;2022-07-18T04:38:16;14.50;99.90
2100;DHT22;1055;48.854;9.302;2022-07-18T04:40:42;14.50;99.90
2100;DHT22;1055;48.854;9.302;2022-07-18T04:43:08;14.60;99.90
2100;DHT22;1055;48.854;9.302;2022-07-18T04:45:36;14.60;99.90
2100;DHT22;1055;48.854;9.302;2022-07-18T04:48:06;14.70;99.90
2100;DHT22;1055;48.854;9.302;2022-07-18T04:50:32;14.70;99.90
2100;DHT22;1055;48.854;9.302;2022-07-18T04:52:59;14.70;99.90
2100;DHT22;1055;48.854;9.302;2022-07-18T04:55:26;14.60;99.90
2100;DHT22;1055;48.854;9.302;2022-07-18T04:57:52;14.70;99.90
2100;DHT22;1055;48.854;9.302;2022-07-18T05:00:20;14.70;99.90
2100;DHT22;1055;48.854;9.302;2022-07-18T05:02:49;14.70;99.90
2100;DHT22;1055;48.854;9.302;2022-07-18T05:05:16;14.90;99.90
2100;DHT22;1055;48.854;9.302;2022-07-18T05:07:43;15.00;99.90
2100;DHT22;1055;48.854;9.302;2022-07-18T05:10:11;15.00;99.90
2100;DHT22;1055;48.854;9.302;2022-07-18T05:12:43;15.20;99.90
2100;DHT22;1055;48.854;9.302;2022-07-18T05:15:10;15.50;99.90
2100;DHT22;1055;48.854;9.302;2022-07-18T05:17:37;15.60;99.90
2100;DHT22;1055;48.854;9.302;2022-07-18T05:20:04;15.80;99.90
2100;DHT22;1055;48.854;9.302;2022-07-18T05:22:33;15.90;99.90
2100;DHT22;1055;48.854;9.302;2022-07-18T05:25:00;16.10;99.90
2100;DHT22;1055;48.854;9.302;2022-07-18T05:27:26;16.20;99.90
2100;DHT22;1055;48.854;9.302;2022-07-18T05:29:52;16.30;99.90
2100;DHT22;1055;48.854;9.302;2022-07-18T05:32:17;16.50;99.90
2100;DHT22;1055;48.854;9.302;2022-07-18T05:34:43;16.80;99.90
2100;DHT22;1055;48.854;9.302;2022-07-18T05:37:09;16.80;99.90
2100;DHT22;1055;48.854;9.302;2022-07-18T05:39:35;17.00;99.90
2100;DHT22;1055;48.854;9.302;2022-07-18T05:42:02;16.80;99.90
2100;DHT22;1055;48.854;9.302;2022-07-18T05:44:27;17.00;99.90
2100;DHT22;1055;48.854;9.302;2022-07-18T05:46:53;17.20;99.90
2100;DHT22;1055;48.854;9.302;2022-07-18T05:49:19;17.40;99.90
2100;DHT22;1055;48.854;9.302;2022-07-18T05:51:45;17.60;99.90
2100;DHT22;1055;48.854;9.302;2022-07-18T05:54:10;17.50;99.90
2100;DHT22;1055;48.854;9.302;2022-07-18T05:56:37;17.20;99.90
2100;DHT22;1055;48.854;9.302;2022-07-18T05:59:02;17.30;99.90
2100;DHT22;1055;48.854;9.302;2022-07-18T06:01:28;17.40;99.90
2100;DHT22;1055;48.854;9.302;2022-07-18T06:03:54;17.80;99.90
2100;DHT22;1055;48.854;9.302;2022-07-18T06:06:19;18.00;99.90
2100;DHT22;1055;48.854;9.302;2022-07-18T06:08:45;18.10;99.90
2100;DHT22;1055;48.854;9.302;2022-07-18T06:11:11;18.10;99.90
2100;DHT22;1055;48.854;9.302;2022-07-18T06:13:39;18.30;99.90
2100;DHT22;1055;48.854;9.302;2022-07-18T06:16:06;18.40;99.90
2100;DHT22;1055;48.854;9.302;2022-07-18T06:18:33;18.40;99.90
2100;DHT22;1055;48.854;9.302;2022-07-18T06:21:03;18.50;99.90
2100;DHT22;1055;48.854;9.302;2022-07-18T06:23:28;18.70;99.90
2100;DHT22;1055;48.854;9.302;2022-07-18T06:25:56;18.70;99.90
2100;DHT22;1055;48.854;9.302;2022-07-18T06:28:22;18.90;99.90
2100;DHT22;1055;48.854;9.302;2022-07-18T06:30:48;19.00;99.90
2100;DHT22;1055;48.854;9.302;2022-07-18T06:33:13;19.10;99.90
2100;DHT22;1055;48.854;9.302;2022-07-18T06:35:42;19.20;99.90
2100;DHT22;1055;48.854;9.302;2022-07-18T06:38:07;19.20;99.90
2100;DHT22;1055;48.854;9.302;2022-07-18T06:40:34;19.10;99.90
2100;DHT22;1055;48.854;9.302;2022-07-18T06:43:00;19.20;99.90
2100;DHT22;1055;48.854;9.302;2022-07-18T06:45:25;19.30;99.90
2100;DHT22;1055;48.854;9.302;2022-07-18T06:47:51;19.40;99.90
2100;DHT22;1055;48.854;9.302;2022-07-18T06:50:17;19.50;99.90
2100;DHT22;1055;48.854;9.302;2022-07-18T06:52:44;19.60;99.90
2100;DHT22;1055;48.854;9.302;2022-07-18T06:55:11;19.70;99.90
2100;DHT22;1055;48.854;9.302;2022-07-18T06:57:37;20.00;99.90
2100;DHT22;1055;48.854;9.302;2022-07-18T07:00:04;20.10;99.90
2100;DHT22;1055;48.854;9.302;2022-07-18T07:02:30;20.30;99.90
2100;DHT22;1055;48.854;9.302;2022-07-18T07:04:56;20.30;99.90
2100;DHT22;1055;48.854;9.302;2022-07-18T07:07:22;20.30;99.90
2100;DHT22;1055;48.854;9.302;2022-07-18T07:09:49;20.40;99.90
2100;DHT22;1055;48.854;9.302;2022-07-18T07:12:15;20.60;99.90
2100;DHT22;1055;48.854;9.302;2022-07-18T07:14:41;20.60;99.80
2100;DHT22;1055;48.854;9.302;2022-07-18T07:17:07;20.70;99.30
2100;DHT22;1055;48.854;9.302;2022-07-18T07:19:32;20.80;99.10
2100;DHT22;1055;48.854;9.302;2022-07-18T07:21:58;21.00;99.10
2100;DHT22;1055;48.854;9.302;2022-07-18T07:24:24;21.10;98.80
2100;DHT22;1055;48.854;9.302;2022-07-18T07:26:49;21.20;97.10
2100;DHT22;1055;48.854;9.302;2022-07-18T07:29:15;21.20;97.60
2100;DHT22;1055;48.854;9.302;2022-07-18T07:31:41;21.30;97.10
2100;DHT22;1055;48.854;9.302;2022-07-18T07:34:08;21.40;96.20
2100;DHT22;1055;48.854;9.302;2022-07-18T07:36:34;21.60;96.10
2100;DHT22;1055;48.854;9.302;2022-07-18T07:39:00;21.70;94.40
2100;DHT22;1055;48.854;9.302;2022-07-18T07:41:26;21.80;93.50
2100;DHT22;1055;48.854;9.302;2022-07-18T07:43:51;21.90;93.00
2100;DHT22;1055;48.854;9.302;2022-07-18T07:46:17;22.00;92.70
2100;DHT22;1055;48.854;9.302;2022-07-18T07:48:42;22.00;91.90
2100;DHT22;1055;48.854;9.302;2022-07-18T07:51:09;22.10;91.70
2100;DHT22;1055;48.854;9.302;2022-07-18T07:53:35;22.20;89.00
2100;DHT22;1055;48.854;9.302;2022-07-18T07:56:01;22.30;88.80
2100;DHT22;1055;48.854;9.302;2022-07-18T07:58:26;22.40;87.50
2100;DHT22;1055;48.854;9.302;2022-07-18T08:00:52;22.60;86.40
2100;DHT22;1055;48.854;9.302;2022-07-18T08:03:19;22.70;85.60
2100;DHT22;1055;48.854;9.302;2022-07-18T08:05:47;22.90;82.40
2100;DHT22;1055;48.854;9.302;2022-07-18T08:08:14;23.10;81.30
2100;DHT22;1055;48.854;9.302;2022-07-18T08:10:40;23.20;79.90
2100;DHT22;1055;48.854;9.302;2022-07-18T08:13:06;23.40;79.70
2100;DHT22;1055;48.854;9.302;2022-07-18T08:15:32;23.50;76.80
2100;DHT22;1055;48.854;9.302;2022-07-18T08:17:58;23.60;77.00
2100;DHT22;1055;48.854;9.302;2022-07-18T08:20:23;23.60;76.10
2100;DHT22;1055;48.854;9.302;2022-07-18T08:23:00;23.60;73.90
2100;DHT22;1055;48.854;9.302;2022-07-18T08:25:29;23.70;76.80
2100;DHT22;1055;48.854;9.302;2022-07-18T08:27:55;23.80;76.00
2100;DHT22;1055;48.854;9.302;2022-07-18T08:30:21;23.90;74.50
2100;DHT22;1055;48.854;9.302;2022-07-18T08:32:47;24.10;74.00
2100;DHT22;1055;48.854;9.302;2022-07-18T08:35:13;24.30;71.20
2100;DHT22;1055;48.854;9.302;2022-07-18T08:37:39;24.40;71.10
2100;DHT22;1055;48.854;9.302;2022-07-18T08:40:05;24.50;69.00
2100;DHT22;1055;48.854;9.302;2022-07-18T08:42:33;24.60;69.50
2100;DHT22;1055;48.854;9.302;2022-07-18T08:45:00;24.80;67.90
2100;DHT22;1055;48.854;9.302;2022-07-18T08:47:28;24.90;65.70
2100;DHT22;1055;48.854;9.302;2022-07-18T08:49:55;25.10;64.00
2100;DHT22;1055;48.854;9.302;2022-07-18T08:52:21;25.20;63.30
2100;DHT22;1055;48.854;9.302;2022-07-18T08:54:47;25.20;63.00
2100;DHT22;1055;48.854;9.302;2022-07-18T08:57:16;25.30;62.10
2100;DHT22;1055;48.854;9.302;2022-07-18T08:59:42;25.40;61.30
2100;DHT22;1055;48.854;9.302;2022-07-18T09:02:08;25.50;62.10
2100;DHT22;1055;48.854;9.302;2022-07-18T09:04:38;25.70;63.60
2100;DHT22;1055;48.854;9.302;2022-07-18T09:07:05;25.80;62.20
2100;DHT22;1055;48.854;9.302;2022-07-18T09:09:32;25.90;62.20
2100;DHT22;1055;48.854;9.302;2022-07-18T09:12:00;26.00;61.10
2100;DHT22;1055;48.854;9.302;2022-07-18T09:14:39;26.00;61.50
2100;DHT22;1055;48.854;9.302;2022-07-18T09:17:24;26.10;61.10
2100;DHT22;1055;48.854;9.302;2022-07-18T09:22:24;26.40;60.00
2100;DHT22;1055;48.854;9.302;2022-07-18T09:24:59;26.60;60.70
2100;DHT22;1055;48.854;9.302;2022-07-18T09:27:40;26.70;59.30
2100;DHT22;1055;48.854;9.302;2022-07-18T09:30:21;26.80;57.80
2100;DHT22;1055;48.854;9.302;2022-07-18T09:32:48;26.90;57.50
2100;DHT22;1055;48.854;9.302;2022-07-18T09:35:19;27.00;55.70
2100;DHT22;1055;48.854;9.302;2022-07-18T09:37:59;27.10;55.00
2100;DHT22;1055;48.854;9.302;2022-07-18T09:40:37;27.30;56.00
2100;DHT22;1055;48.854;9.302;2022-07-18T09:43:06;27.40;54.20
2100;DHT22;1055;48.854;9.302;2022-07-18T09:45:44;27.50;52.70
2100;DHT22;1055;48.854;9.302;2022-07-18T09:48:36;27.60;52.20
2100;DHT22;1055;48.854;9.302;2022-07-18T09:51:03;27.60;50.10
2100;DHT22;1055;48.854;9.302;2022-07-18T09:53:39;27.70;51.50
2100;DHT22;1055;48.854;9.302;2022-07-18T09:56:32;27.70;50.90
2100;DHT22;1055;48.854;9.302;2022-07-18T09:59:03;27.80;51.40
2100;DHT22;1055;48.854;9.302;2022-07-18T10:01:29;27.80;50.90
2100;DHT22;1055;48.854;9.302;2022-07-18T10:03:58;28.00;52.20
2100;DHT22;1055;48.854;9.302;2022-07-18T10:06:24;28.00;51.80
2100;DHT22;1055;48.854;9.302;2022-07-18T10:08:50;28.20;51.00
2100;DHT22;1055;48.854;9.302;2022-07-18T10:11:19;28.30;50.80
2100;DHT22;1055;48.854;9.302;2022-07-18T10:13:45;28.50;52.00
2100;DHT22;1055;48.854;9.302;2022-07-18T10:16:11;28.60;51.10
2100;DHT22;1055;48.854;9.302;2022-07-18T10:18:37;28.80;50.70
2100;DHT22;1055;48.854;9.302;2022-07-18T10:21:08;28.80;48.90
2100;DHT22;1055;48.854;9.302;2022-07-18T10:23:38;28.90;48.80
2100;DHT22;1055;48.854;9.302;2022-07-18T10:26:07;28.80;48.40
2100;DHT22;1055;48.854;9.302;2022-07-18T10:28:35;28.80;49.60
2100;DHT22;1055;48.854;9.302;2022-07-18T10:31:19;29.00;50.00
2100;DHT22;1055;48.854;9.302;2022-07-18T10:33:46;29.00;49.30
2100;DHT22;1055;48.854;9.302;2022-07-18T10:41:32;29.30;48.70
2100;DHT22;1055;48.854;9.302;2022-07-18T10:43:58;29.30;48.50
2100;DHT22;1055;48.854;9.302;2022-07-18T10:46:27;29.40;48.50
2100;DHT22;1055;48.854;9.302;2022-07-18T10:49:10;29.60;48.90
2100;DHT22;1055;48.854;9.302;2022-07-18T10:51:36;29.70;47.10
2100;DHT22;1055;48.854;9.302;2022-07-18T10:54:05;29.80;47.30
2100;DHT22;1055;48.854;9.302;2022-07-18T10:59:21;29.90;47.50
2100;DHT22;1055;48.854;9.302;2022-07-18T11:01:52;30.10;47.30
2100;DHT22;1055;48.854;9.302;2022-07-18T11:04:31;30.10;46.70
2100;DHT22;1055;48.854;9.302;2022-07-18T11:09:47;30.20;47.40
2100;DHT22;1055;48.854;9.302;2022-07-18T11:15:05;30.50;47.40
2100;DHT22;1055;48.854;9.302;2022-07-18T11:17:53;30.50;46.60
2100;DHT22;1055;48.854;9.302;2022-07-18T11:20:26;30.70;45.90
2100;DHT22;1055;48.854;9.302;2022-07-18T11:22:52;30.50;44.80
2100;DHT22;1055;48.854;9.302;2022-07-18T11:25:18;30.70;45.10
2100;DHT22;1055;48.854;9.302;2022-07-18T11:27:44;30.50;46.40
2100;DHT22;1055;48.854;9.302;2022-07-18T11:30:16;30.30;47.10
2100;DHT22;1055;48.854;9.302;2022-07-18T11:32:42;30.30;45.60
2100;DHT22;1055;48.854;9.302;2022-07-18T11:35:08;30.40;45.70
2100;DHT22;1055;48.854;9.302;2022-07-18T11:37:36;30.40;45.10
2100;DHT22;1055;48.854;9.302;2022-07-18T11:40:09;30.40;45.50
2100;DHT22;1055;48.854;9.302;2022-07-18T11:42:40;30.60;45.40
2100;DHT22;1055;48.854;9.302;2022-07-18T11:45:08;30.50;44.70
2100;DHT22;1055;48.854;9.302;2022-07-18T11:47:51;30.70;44.90
2100;DHT22;1055;48.854;9.302;2022-07-18T11:50:36;31.00;44.30
2100;DHT22;1055;48.854;9.302;2022-07-18T11:53:01;31.10;44.80
2100;DHT22;1055;48.854;9.302;2022-07-18T11:55:35;31.30;45.00
2100;DHT22;1055;48.854;9.302;2022-07-18T11:58:12;31.50;43.90
2100;DHT22;1055;48.854;9.302;2022-07-18T12:00:39;31.60;42.80
2100;DHT22;1055;48.854;9.302;2022-07-18T12:03:11;31.50;44.20
2100;DHT22;1055;48.854;9.302;2022-07-18T12:05:39;31.40;43.50
2100;DHT22;1055;48.854;9.302;2022-07-18T12:11:09;31.80;43.90
2100;DHT22;1055;48.854;9.302;2022-07-18T12:16:35;32.20;43.20
2100;DHT22;1055;48.854;9.302;2022-07-18T12:19:12;32.40;42.70
2100;DHT22;1055;48.854;9.302;2022-07-18T12:24:35;32.40;42.60
2100;DHT22;1055;48.854;9.302;2022-07-18T12:27:20;32.50;42.50
2100;DHT22;1055;48.854;9.302;2022-07-18T12:35:05;33.10;41.90
2100;DHT22;1055;48.854;9.302;2022-07-18T12:37:31;33.20;42.30
2100;DHT22;1055;48.854;9.302;2022-07-18T12:40:03;33.40;42.20
2100;DHT22;1055;48.854;9.302;2022-07-18T12:42:49;33.70;40.90
2100;DHT22;1055;48.854;9.302;2022-07-18T12:45:15;33.50;42.20
2100;DHT22;1055;48.854;9.302;2022-07-18T12:47:41;33.30;41.90
2100;DHT22;1055;48.854;9.302;2022-07-18T12:50:07;33.30;41.40
2100;DHT22;1055;48.854;9.302;2022-07-18T12:52:33;33.30;41.60
2100;DHT22;1055;48.854;9.302;2022-07-18T12:54:59;33.50;42.40
2100;DHT22;1055;48.854;9.302;2022-07-18T12:57:25;33.60;42.20
2100;DHT22;1055;48.854;9.302;2022-07-18T12:59:51;33.80;40.70
2100;DHT22;1055;48.854;9.302;2022-07-18T13:02:17;34.20;40.60
2100;DHT22;1055;48.854;9.302;2022-07-18T13:04:44;34.30;39.90
2100;DHT22;1055;48.854;9.302;2022-07-18T13:07:10;34.50;40.50
2100;DHT22;1055;48.854;9.302;2022-07-18T13:09:36;34.80;40.70
2100;DHT22;1055;48.854;9.302;2022-07-18T13:12:02;35.20;40.50
2100;DHT22;1055;48.854;9.302;2022-07-18T13:14:28;35.30;40.10
2100;DHT22;1055;48.854;9.302;2022-07-18T13:16:54;35.30;40.20
2100;DHT22;1055;48.854;9.302;2022-07-18T13:19:20;35.30;40.10
2100;DHT22;1055;48.854;9.302;2022-07-18T13:21:47;35.60;40.10
2100;DHT22;1055;48.854;9.302;2022-07-18T13:24:13;35.70;38.90
2100;DHT22;1055;48.854;9.302;2022-07-18T13:26:40;35.80;39.60
2100;DHT22;1055;48.854;9.302;2022-07-18T13:29:06;35.90;40.50
2100;DHT22;1055;48.854;9.302;2022-07-18T13:31:32;34.80;38.20
2100;DHT22;1055;48.854;9.302;2022-07-18T13:33:58;35.30;40.40
2100;DHT22;1055;48.854;9.302;2022-07-18T13:36:24;35.50;38.80
2100;DHT22;1055;48.854;9.302;2022-07-18T13:38:50;35.60;39.10
2100;DHT22;1055;48.854;9.302;2022-07-18T13:41:15;36.10;38.60
2100;DHT22;1055;48.854;9.302;2022-07-18T13:43:41;36.40;38.60
2100;DHT22;1055;48.854;9.302;2022-07-18T13:46:08;36.40;38.30
2100;DHT22;1055;48.854;9.302;2022-07-18T13:48:34;36.40;38.70
2100;DHT22;1055;48.854;9.302;2022-07-18T13:51:00;36.80;38.60
2100;DHT22;1055;48.854;9.302;2022-07-18T13:53:26;36.50;38.10
2100;DHT22;1055;48.854;9.302;2022-07-18T13:55:52;36.80;38.40
2100;DHT22;1055;48.854;9.302;2022-07-18T13:58:18;37.30;37.60
2100;DHT22;1055;48.854;9.302;2022-07-18T14:00:44;36.70;37.70
2100;DHT22;1055;48.854;9.302;2022-07-18T14:03:10;36.70;38.50
2100;DHT22;1055;48.854;9.302;2022-07-18T14:05:36;36.50;38.80
2100;DHT22;1055;48.854;9.302;2022-07-18T14:08:03;36.50;37.70
2100;DHT22;1055;48.854;9.302;2022-07-18T14:10:30;36.80;38.00
2100;DHT22;1055;48.854;9.302;2022-07-18T14:12:55;37.30;37.20
2100;DHT22;1055;48.854;9.302;2022-07-18T14:15:21;37.60;36.90
2100;DHT22;1055;48.854;9.302;2022-07-18T14:17:47;37.80;37.20
2100;DHT22;1055;48.854;9.302;2022-07-18T14:20:15;37.80;37.30
2100;DHT22;1055;48.854;9.302;2022-07-18T14:22:42;38.00;37.20
2100;DHT22;1055;48.854;9.302;2022-07-18T14:25:10;38.20;37.00
2100;DHT22;1055;48.854;9.302;2022-07-18T14:27:36;38.30;36.30
2100;DHT22;1055;48.854;9.302;2022-07-18T14:30:05;38.50;35.70
2100;DHT22;1055;48.854;9.302;2022-07-18T14:32:31;38.10;36.40
2100;DHT22;1055;48.854;9.302;2022-07-18T14:34:56;38.50;35.90
2100;DHT22;1055;48.854;9.302;2022-07-18T14:37:22;38.00;35.80
2100;DHT22;1055;48.854;9.302;2022-07-18T14:39:48;38.10;36.20
2100;DHT22;1055;48.854;9.302;2022-07-18T14:42:14;37.50;36.00
2100;DHT22;1055;48.854;9.302;2022-07-18T14:44:40;38.20;35.90
2100;DHT22;1055;48.854;9.302;2022-07-18T14:47:05;38.50;35.10
2100;DHT22;1055;48.854;9.302;2022-07-18T14:49:31;37.40;35.90
2100;DHT22;1055;48.854;9.302;2022-07-18T14:51:57;35.60;34.60
2100;DHT22;1055;48.854;9.302;2022-07-18T14:54:25;36.50;36.00
2100;DHT22;1055;48.854;9.302;2022-07-18T14:56:51;36.60;36.00
2100;DHT22;1055;48.854;9.302;2022-07-18T14:59:18;36.80;36.00
2100;DHT22;1055;48.854;9.302;2022-07-18T15:01:44;36.70;36.40
2100;DHT22;1055;48.854;9.302;2022-07-18T15:04:09;36.40;35.70
2100;DHT22;1055;48.854;9.302;2022-07-18T15:06:36;37.00;36.20
2100;DHT22;1055;48.854;9.302;2022-07-18T15:09:03;37.70;36.20
2100;DHT22;1055;48.854;9.302;2022-07-18T15:11:28;37.80;36.00
2100;DHT22;1055;48.854;9.302;2022-07-18T15:13:55;37.20;35.30
2100;DHT22;1055;48.854;9.302;2022-07-18T15:16:22;37.70;34.90
2100;DHT22;1055;48.854;9.302;2022-07-18T15:18:48;37.10;35.70
2100;DHT22;1055;48.854;9.302;2022-07-18T15:21:13;37.70;35.60
2100;DHT22;1055;48.854;9.302;2022-07-18T15:23:39;37.90;35.00
2100;DHT22;1055;48.854;9.302;2022-07-18T15:26:05;38.20;35.00
2100;DHT22;1055;48.854;9.302;2022-07-18T15:28:31;38.20;34.80
2100;DHT22;1055;48.854;9.302;2022-07-18T15:30:56;38.60;35.90
2100;DHT22;1055;48.854;9.302;2022-07-18T15:33:22;37.70;35.00
2100;DHT22;1055;48.854;9.302;2022-07-18T15:35:48;38.20;35.80
2100;DHT22;1055;48.854;9.302;2022-07-18T15:38:14;38.60;34.40
2100;DHT22;1055;48.854;9.302;2022-07-18T15:40:39;37.80;34.60
2100;DHT22;1055;48.854;9.302;2022-07-18T15:43:05;37.80;37.30
2100;DHT22;1055;48.854;9.302;2022-07-18T15:45:31;37.60;35.70
2100;DHT22;1055;48.854;9.302;2022-07-18T15:47:58;38.20;36.20
2100;DHT22;1055;48.854;9.302;2022-07-18T15:50:23;38.90;35.20
2100;DHT22;1055;48.854;9.302;2022-07-18T15:52:49;38.80;36.10
2100;DHT22;1055;48.854;9.302;2022-07-18T15:55:15;38.70;35.10
2100;DHT22;1055;48.854;9.302;2022-07-18T15:57:42;37.90;35.20
2100;DHT22;1055;48.854;9.302;2022-07-18T16:00:10;38.40;34.70
2100;DHT22;1055;48.854;9.302;2022-07-18T16:02:36;38.40;35.00
2100;DHT22;1055;48.854;9.302;2022-07-18T16:05:03;38.70;35.30
2100;DHT22;1055;48.854;9.302;2022-07-18T16:07:28;38.90;34.50
2100;DHT22;1055;48.854;9.302;2022-07-18T16:09:54;39.10;34.50
2100;DHT22;1055;48.854;9.302;2022-07-18T16:12:20;39.20;34.70
2100;DHT22;1055;48.854;9.302;2022-07-18T16:14:46;39.20;34.90
2100;DHT22;1055;48.854;9.302;2022-07-18T16:17:12;38.90;35.80
2100;DHT22;1055;48.854;9.302;2022-07-18T16:19:38;39.20;35.20
2100;DHT22;1055;48.854;9.302;2022-07-18T16:22:05;39.70;34.40
2100;DHT22;1055;48.854;9.302;2022-07-18T16:24:30;39.60;34.90
2100;DHT22;1055;48.854;9.302;2022-07-18T16:26:56;39.80;34.10
2100;DHT22;1055;48.854;9.302;2022-07-18T16:29:22;39.60;34.00
2100;DHT22;1055;48.854;9.302;2022-07-18T16:31:48;39.50;34.00
2100;DHT22;1055;48.854;9.302;2022-07-18T16:34:14;38.90;33.90
2100;DHT22;1055;48.854;9.302;2022-07-18T16:36:41;39.40;34.10